Time;durP1;ratioP1;P1;durP2;ratioP2;P2;SDS_P1;SDS_P2;PMS_P1;PMS_P2;Temp;Humidity;BMP_temperature;BMP_pressure;BME280_temperature;BME280_humidity;BME280_pressure;Samples;Min_cycle;Max_cycle;Signal;HPM_P1;HPM_P2
2021/12/26 00:01:29;;;;;;;32.53;11.05;;;15.40;99.90;;;;;;5036253;28;20026;-63
2021/12/26 00:03:55;;;;;;;29.45;10.30;;;15.30;99.90;;;;;;5036470;28;20108;-65
2021/12/26 00:06:26;;;;;;;35.42;10.95;;;15.30;99.90;;;;;;5036244;28;20088;-65
2021/12/26 00:08:54;;;;;;;28.88;11.18;;;15.30;99.90;;;;;;5036061;28;20021;-65
2021/12/26 00:11:20;;;;;;;41.97;11.35;;;15.30;99.90;;;;;;5036238;28;20057;-65
2021/12/26 00:13:50;;;;;;;33.10;10.98;;;15.30;99.90;;;;;;5036019;28;20063;-63
2021/12/26 00:16:16;;;;;;;28.98;11.00;;;15.30;99.90;;;;;;5036008;28;20030;-65
2021/12/26 00:18:44;;;;;;;29.80;10.55;;;15.30;99.90;;;;;;5035907;28;20028;-65
2021/12/26 00:21:12;;;;;;;34.22;12.85;;;15.30;99.90;;;;;;5018672;28;20030;-64
2021/12/26 00:23:38;;;;;;;28.30;10.65;;;15.30;99.90;;;;;;5035825;28;20022;-65
2021/12/26 00:26:04;;;;;;;32.53;11.32;;;15.30;99.90;;;;;;5036223;28;20047;-64
2021/12/26 00:28:31;;;;;;;26.27;10.85;;;15.30;99.90;;;;;;5035690;28;20093;-64
2021/12/26 00:30:57;;;;;;;36.90;11.38;;;15.30;99.90;;;;;;5035730;28;20037;-65
2021/12/26 00:33:24;;;;;;;30.58;11.43;;;15.30;99.90;;;;;;5035569;28;20025;-64
2021/12/26 00:35:49;;;;;;;36.65;11.95;;;15.30;99.90;;;;;;5035575;28;20037;-65
2021/12/26 00:38:16;;;;;;;28.17;11.10;;;15.30;99.90;;;;;;5035290;28;20135;-65
2021/12/26 00:40:42;;;;;;;28.20;11.13;;;15.30;99.90;;;;;;5035295;28;20076;-65
2021/12/26 00:43:08;;;;;;;33.95;12.02;;;15.30;99.90;;;;;;5035672;28;20033;-64
2021/12/26 00:45:34;;;;;;;34.05;11.38;;;15.30;99.90;;;;;;5035403;28;20034;-64
2021/12/26 00:48:00;;;;;;;30.58;11.82;;;15.30;99.90;;;;;;5034452;28;20020;-64
2021/12/26 00:50:29;;;;;;;37.25;12.05;;;15.30;99.90;;;;;;5017347;28;20053;-64
2021/12/26 00:52:56;;;;;;;29.40;10.32;;;15.30;99.90;;;;;;5035332;28;20022;-71
2021/12/26 00:55:23;;;;;;;33.38;10.77;;;15.30;99.90;;;;;;5035288;28;20124;-65
2021/12/26 00:57:49;;;;;;;38.70;12.43;;;15.30;99.90;;;;;;5035196;28;20353;-65
2021/12/26 01:00:19;;;;;;;31.05;12.13;;;15.30;99.90;;;;;;5035200;28;20022;-63
2021/12/26 01:02:45;;;;;;;34.60;12.10;;;15.30;99.90;;;;;;5035103;28;20025;-65
2021/12/26 01:05:12;;;;;;;34.30;11.55;;;15.30;99.90;;;;;;5035229;28;20375;-67
2021/12/26 01:07:58;;;;;;;36.13;12.25;;;15.30;99.90;;;;;;5035146;28;20121;-65
2021/12/26 01:10:31;;;;;;;27.45;11.38;;;15.30;99.90;;;;;;5035119;28;20044;-66
2021/12/26 01:12:57;;;;;;;37.73;12.60;;;15.30;99.90;;;;;;5035140;28;20061;-66
2021/12/26 01:15:23;;;;;;;34.30;11.15;;;15.30;99.90;;;;;;5035157;28;20326;-65
2021/12/26 01:17:55;;;;;;;41.47;12.32;;;15.30;99.90;;;;;;5034825;28;20057;-65
2021/12/26 01:21:28;;;;;;;32.03;11.60;;;15.30;99.90;;;;;;5034808;28;20021;-65
2021/12/26 01:23:25;;;;;;;31.60;11.23;;;15.30;99.90;;;;;;5029962;28;20097;-66
2021/12/26 01:25:51;;;;;;;33.50;11.68;;;15.30;99.90;;;;;;5034895;28;20029;-65
2021/12/26 01:28:19;;;;;;;31.52;11.57;;;15.30;99.90;;;;;;5034593;28;20545;-64
2021/12/26 01:30:45;;;;;;;37.03;11.73;;;15.30;99.90;;;;;;5000530;28;20040;-66
2021/12/26 01:33:14;;;;;;;35.92;10.85;;;15.30;99.90;;;;;;5034671;28;20079;-65
2021/12/26 01:35:40;;;;;;;27.08;10.43;;;15.30;99.90;;;;;;5034536;28;20042;-65
2021/12/26 01:38:09;;;;;;;23.63;9.18;;;15.30;99.90;;;;;;5034572;28;20096;-64
2021/12/26 01:40:38;;;;;;;33.03;11.10;;;15.30;99.90;;;;;;5034439;28;20102;-65
2021/12/26 01:43:04;;;;;;;27.85;9.32;;;15.30;99.90;;;;;;5034237;28;20090;-65
2021/12/26 01:45:30;;;;;;;33.28;9.80;;;15.30;99.90;;;;;;5034316;28;20030;-65
2021/12/26 01:48:01;;;;;;;25.20;9.00;;;15.30;99.90;;;;;;5034607;28;20032;-66
2021/12/26 01:50:28;;;;;;;25.83;9.70;;;15.20;99.90;;;;;;5034137;28;20053;-65
2021/12/26 01:52:54;;;;;;;23.92;8.82;;;15.20;99.90;;;;;;5016786;28;20443;-65
2021/12/26 01:55:38;;;;;;;21.70;8.55;;;15.20;99.90;;;;;;5034162;28;20038;-65
2021/12/26 01:58:07;;;;;;;25.75;7.97;;;15.20;99.90;;;;;;5034183;28;20034;-65
2021/12/26 02:00:35;;;;;;;26.05;7.93;;;15.20;99.90;;;;;;5034186;28;20059;-65
2021/12/26 02:03:02;;;;;;;22.98;7.40;;;15.20;99.90;;;;;;5033968;28;20439;-64
2021/12/26 02:05:28;;;;;;;26.77;8.25;;;15.20;99.90;;;;;;5033966;28;20022;-65
2021/12/26 02:07:54;;;;;;;21.85;8.10;;;15.20;99.90;;;;;;5034068;28;20118;-65
2021/12/26 02:10:20;;;;;;;21.85;6.55;;;15.20;99.90;;;;;;5033921;28;20543;-66
2021/12/26 02:12:45;;;;;;;20.27;6.93;;;15.20;99.90;;;;;;5034009;28;20083;-65
2021/12/26 02:15:11;;;;;;;18.20;6.60;;;15.20;99.90;;;;;;5033930;28;20034;-64
2021/12/26 02:17:37;;;;;;;24.88;6.75;;;15.10;99.90;;;;;;5033923;28;20131;-64
2021/12/26 02:23:15;;;;;;;20.73;6.85;;;15.00;99.90;;;;;;5032803;28;20053;-66
2021/12/26 02:28:09;;;;;;;18.48;6.25;;;14.90;99.90;;;;;;5033733;28;20418;-66
2021/12/26 02:30:38;;;;;;;23.17;7.00;;;14.90;99.90;;;;;;5033546;28;20436;-67
2021/12/26 02:33:07;;;;;;;19.55;6.22;;;14.90;99.90;;;;;;5033553;28;20033;-65
2021/12/26 02:35:35;;;;;;;19.92;6.60;;;14.80;99.90;;;;;;5033623;28;20128;-67
2021/12/26 02:38:01;;;;;;;21.85;6.22;;;14.80;99.90;;;;;;5016192;28;20063;-64
2021/12/26 02:40:27;;;;;;;19.13;6.15;;;14.80;99.90;;;;;;5033555;28;20021;-64
2021/12/26 02:42:53;;;;;;;27.52;6.35;;;14.80;99.90;;;;;;5033331;28;20033;-64
2021/12/26 02:45:18;;;;;;;19.88;6.40;;;14.70;99.90;;;;;;5033318;28;20021;-65
2021/12/26 02:47:48;;;;;;;15.68;6.40;;;14.70;99.90;;;;;;5033229;28;20171;-64
2021/12/26 02:50:18;;;;;;;21.42;6.57;;;14.70;99.90;;;;;;5033144;28;20056;-64
2021/12/26 02:52:44;;;;;;;18.73;5.95;;;14.70;99.90;;;;;;5033145;28;20025;-64
2021/12/26 02:55:12;;;;;;;19.63;6.63;;;14.70;99.90;;;;;;5015684;28;20041;-64
2021/12/26 02:57:39;;;;;;;19.30;6.32;;;14.70;99.90;;;;;;5033004;28;20072;-64
2021/12/26 03:00:14;;;;;;;22.70;6.68;;;14.60;99.90;;;;;;5033321;28;20030;-64
2021/12/26 03:02:41;;;;;;;21.02;6.88;;;14.60;99.90;;;;;;5033157;28;20024;-64
2021/12/26 03:05:07;;;;;;;24.63;7.20;;;14.60;99.90;;;;;;5033028;28;20088;-65
2021/12/26 03:07:33;;;;;;;14.93;5.95;;;14.50;99.90;;;;;;5033221;28;20100;-65
2021/12/26 03:10:00;;;;;;;15.85;5.55;;;14.50;99.90;;;;;;5033866;28;20060;-64
2021/12/26 03:12:31;;;;;;;19.48;7.10;;;14.50;99.90;;;;;;5039491;28;20435;-64
2021/12/26 03:14:57;;;;;;;20.15;6.38;;;14.50;99.90;;;;;;5039586;28;20068;-64
2021/12/26 03:17:23;;;;;;;18.00;6.13;;;14.50;99.90;;;;;;5039653;28;20045;-64
2021/12/26 03:19:49;;;;;;;21.10;6.93;;;14.50;99.90;;;;;;5039625;28;20139;-65
2021/12/26 03:22:15;;;;;;;17.30;5.75;;;14.50;99.90;;;;;;5039595;28;20558;-64
2021/12/26 03:24:44;;;;;;;14.65;5.85;;;14.50;99.90;;;;;;5039458;28;20096;-65
2021/12/26 03:27:12;;;;;;;18.27;6.40;;;14.50;99.90;;;;;;5039454;28;20030;-64
2021/12/26 03:29:38;;;;;;;18.35;5.95;;;14.60;99.90;;;;;;5039268;28;20034;-63
2021/12/26 03:32:04;;;;;;;18.70;5.90;;;14.60;99.90;;;;;;5039555;28;20119;-64
2021/12/26 03:34:30;;;;;;;16.17;5.25;;;14.60;99.90;;;;;;5039535;28;20026;-64
2021/12/26 03:36:56;;;;;;;16.10;5.43;;;14.60;99.90;;;;;;5039498;28;20383;-64
2021/12/26 03:39:23;;;;;;;16.20;5.45;;;14.60;99.90;;;;;;5021767;28;20413;-64
2021/12/26 03:41:50;;;;;;;14.80;4.90;;;14.60;99.90;;;;;;5039342;28;20378;-64
2021/12/26 03:44:16;;;;;;;18.83;5.45;;;14.60;99.90;;;;;;5039147;28;20022;-64
2021/12/26 03:46:43;;;;;;;17.40;5.53;;;14.50;99.90;;;;;;5039614;28;20513;-65
2021/12/26 03:49:09;;;;;;;17.52;6.18;;;14.50;99.90;;;;;;5039183;28;20104;-66
2021/12/26 03:51:35;;;;;;;14.00;5.57;;;14.50;99.90;;;;;;5039615;28;20427;-65
2021/12/26 03:54:04;;;;;;;14.35;5.10;;;14.50;99.90;;;;;;5039117;28;20155;-64
2021/12/26 03:56:31;;;;;;;14.95;5.10;;;14.50;99.90;;;;;;5039290;28;20029;-65
2021/12/26 03:58:58;;;;;;;20.45;6.35;;;14.40;99.90;;;;;;5039362;28;20045;-65
2021/12/26 04:01:25;;;;;;;16.02;4.85;;;14.40;99.90;;;;;;5039162;28;20037;-65
2021/12/26 04:03:51;;;;;;;18.70;6.10;;;14.40;99.90;;;;;;5039331;28;20075;-66
2021/12/26 04:06:18;;;;;;;15.93;5.30;;;14.40;99.90;;;;;;5039386;28;20052;-65
2021/12/26 04:08:43;;;;;;;16.30;5.50;;;14.40;99.90;;;;;;5039108;28;20025;-68
2021/12/26 04:11:09;;;;;;;21.92;6.32;;;14.30;99.90;;;;;;5039319;28;20113;-65
2021/12/26 04:13:36;;;;;;;16.08;5.30;;;14.30;99.90;;;;;;5039468;28;20018;-65
2021/12/26 04:16:02;;;;;;;19.35;6.18;;;14.30;99.90;;;;;;5039139;28;20029;-65
2021/12/26 04:18:28;;;;;;;17.52;6.03;;;14.30;99.90;;;;;;5039073;28;20057;-65
2021/12/26 04:20:53;;;;;;;18.10;6.32;;;14.30;99.90;;;;;;5039192;28;20068;-65
2021/12/26 04:23:22;;;;;;;15.43;5.85;;;14.30;99.90;;;;;;5035110;28;20017;-64
2021/12/26 04:25:48;;;;;;;17.85;5.85;;;14.30;99.90;;;;;;5036234;28;20045;-65
2021/12/26 04:28:17;;;;;;;16.48;5.03;;;14.30;99.90;;;;;;5035876;28;20033;-64
2021/12/26 04:30:45;;;;;;;17.42;5.45;;;14.30;99.90;;;;;;5035932;28;20105;-65
2021/12/26 04:33:10;;;;;;;17.08;5.70;;;14.30;99.90;;;;;;5035847;28;20044;-64
2021/12/26 04:35:37;;;;;;;15.38;5.03;;;14.30;99.90;;;;;;5035645;28;20121;-65
2021/12/26 04:38:02;;;;;;;14.98;5.63;;;14.30;99.90;;;;;;5035651;28;20082;-65
2021/12/26 04:40:28;;;;;;;16.75;5.05;;;14.30;99.90;;;;;;5035529;28;20519;-65
2021/12/26 04:42:54;;;;;;;15.35;5.10;;;14.30;99.90;;;;;;5035593;28;20033;-65
2021/12/26 04:45:20;;;;;;;13.98;4.53;;;14.30;99.90;;;;;;5035687;28;20485;-66
2021/12/26 04:47:46;;;;;;;16.30;5.05;;;14.30;99.90;;;;;;5035391;28;20021;-64
2021/12/26 04:50:15;;;;;;;17.58;5.30;;;14.30;99.90;;;;;;5035214;28;20045;-64
2021/12/26 04:52:43;;;;;;;15.52;4.60;;;14.30;99.90;;;;;;5035423;28;20030;-64
2021/12/26 04:55:10;;;;;;;11.32;4.55;;;14.30;99.90;;;;;;5035139;28;20040;-65
2021/12/26 04:57:37;;;;;;;17.23;5.93;;;14.30;99.90;;;;;;5035235;28;20104;-64
2021/12/26 05:00:12;;;;;;;16.50;5.03;;;14.30;99.90;;;;;;5035358;28;20053;-65
2021/12/26 05:02:39;;;;;;;11.02;4.68;;;14.30;99.90;;;;;;5035299;28;20100;-65
2021/12/26 05:05:06;;;;;;;15.80;4.40;;;14.30;99.90;;;;;;5034941;28;20422;-66
2021/12/26 05:07:33;;;;;;;16.48;4.97;;;14.30;99.90;;;;;;5017168;28;20459;-65
2021/12/26 05:09:58;;;;;;;18.23;5.35;;;14.40;99.90;;;;;;5035048;28;20032;-65
2021/12/26 05:12:24;;;;;;;16.20;5.25;;;14.40;99.90;;;;;;5034989;28;20030;-65
2021/12/26 05:14:51;;;;;;;15.07;4.80;;;14.40;99.90;;;;;;5034967;28;20029;-65
2021/12/26 05:17:17;;;;;;;14.88;4.80;;;14.40;99.90;;;;;;5034957;28;20041;-65
2021/12/26 05:19:43;;;;;;;14.60;4.50;;;14.50;99.90;;;;;;5017181;28;20025;-65
2021/12/26 05:22:08;;;;;;;11.13;4.82;;;14.40;99.90;;;;;;5034718;28;20430;-64
2021/12/26 05:24:34;;;;;;;14.48;4.53;;;14.40;99.90;;;;;;5016978;28;20026;-65
2021/12/26 05:27:00;;;;;;;11.23;4.50;;;14.50;99.90;;;;;;5034828;28;20529;-64
2021/12/26 05:29:26;;;;;;;14.48;5.47;;;14.50;99.90;;;;;;5034670;28;20021;-65
2021/12/26 05:31:53;;;;;;;13.00;5.22;;;14.50;99.90;;;;;;5034732;28;20471;-65
2021/12/26 05:34:19;;;;;;;14.82;4.57;;;14.50;99.90;;;;;;5033910;28;20037;-65
2021/12/26 05:36:45;;;;;;;13.68;4.80;;;14.50;99.90;;;;;;5034526;28;20025;-65
2021/12/26 05:39:10;;;;;;;11.30;4.40;;;14.50;99.90;;;;;;5034376;28;20067;-64
2021/12/26 05:41:36;;;;;;;13.18;5.00;;;14.50;99.90;;;;;;5034498;28;20022;-64
2021/12/26 05:44:02;;;;;;;11.75;4.20;;;14.40;99.90;;;;;;5034508;28;20378;-65
2021/12/26 05:46:28;;;;;;;15.85;4.50;;;14.50;99.90;;;;;;5034340;28;20033;-65
2021/12/26 05:48:53;;;;;;;10.77;4.53;;;14.50;99.90;;;;;;5034324;28;20160;-65
2021/12/26 05:51:19;;;;;;;14.45;4.93;;;14.50;99.90;;;;;;5033886;28;20053;-64
2021/12/26 05:53:45;;;;;;;13.50;4.68;;;14.50;99.90;;;;;;5034064;28;20021;-65
2021/12/26 05:56:10;;;;;;;17.20;4.78;;;14.50;99.90;;;;;;5034271;28;20358;-64
2021/12/26 05:58:36;;;;;;;10.18;3.90;;;14.50;99.90;;;;;;5033949;28;20463;-65
2021/12/26 06:01:03;;;;;;;12.38;4.30;;;14.50;99.90;;;;;;5033992;28;20029;-66
2021/12/26 06:03:28;;;;;;;16.67;4.43;;;14.50;99.90;;;;;;5034485;28;20052;-64
2021/12/26 06:05:54;;;;;;;12.77;4.82;;;14.50;99.90;;;;;;5033962;28;20029;-66
2021/12/26 06:08:20;;;;;;;12.50;4.03;;;14.50;99.90;;;;;;5034025;28;20034;-64
2021/12/26 06:10:46;;;;;;;13.00;4.28;;;14.50;99.90;;;;;;5034091;28;20018;-65
2021/12/26 06:13:11;;;;;;;11.93;4.07;;;14.50;99.90;;;;;;5033926;28;20360;-64
2021/12/26 06:15:37;;;;;;;11.15;4.30;;;14.50;99.90;;;;;;5033834;28;20049;-65
2021/12/26 06:18:03;;;;;;;12.45;4.38;;;14.50;99.90;;;;;;5033643;28;20101;-65
2021/12/26 06:20:29;;;;;;;11.18;3.88;;;14.50;99.90;;;;;;5033605;28;20501;-65
2021/12/26 06:22:55;;;;;;;11.98;4.25;;;14.50;99.90;;;;;;5033887;28;20044;-65
2021/12/26 06:25:20;;;;;;;9.13;3.65;;;14.50;99.90;;;;;;5033704;28;20467;-65
2021/12/26 06:27:46;;;;;;;12.48;3.65;;;14.50;99.90;;;;;;5033631;28;20040;-65
2021/12/26 06:30:15;;;;;;;11.90;3.85;;;14.50;99.90;;;;;;5033650;28;20071;-65
2021/12/26 06:32:41;;;;;;;9.95;3.50;;;14.50;99.90;;;;;;5033312;28;20112;-64
2021/12/26 06:35:08;;;;;;;8.93;3.60;;;14.40;99.90;;;;;;5033232;28;20447;-65
2021/12/26 06:37:35;;;;;;;10.68;3.30;;;14.40;99.90;;;;;;5033307;28;20030;-65
2021/12/26 06:40:01;;;;;;;10.40;3.50;;;14.40;99.90;;;;;;5033372;28;20029;-64
2021/12/26 06:42:29;;;;;;;8.75;3.67;;;14.40;99.90;;;;;;5033272;28;20034;-64
2021/12/26 06:44:55;;;;;;;9.68;3.25;;;14.40;99.90;;;;;;5032805;28;20025;-64
2021/12/26 06:47:22;;;;;;;11.65;3.20;;;14.40;99.90;;;;;;5033337;28;20021;-65
2021/12/26 06:49:48;;;;;;;11.70;3.08;;;14.40;99.90;;;;;;5032960;28;20049;-65
2021/12/26 06:52:13;;;;;;;8.40;3.40;;;14.50;99.90;;;;;;5033311;28;20025;-64
2021/12/26 06:54:40;;;;;;;14.70;3.20;;;14.50;99.90;;;;;;5032987;28;20180;-64
2021/12/26 06:57:06;;;;;;;16.13;3.50;;;14.50;99.90;;;;;;5033346;28;20033;-64
2021/12/26 06:59:32;;;;;;;11.73;3.58;;;14.50;99.90;;;;;;5033070;28;20057;-64
2021/12/26 07:01:58;;;;;;;11.35;3.13;;;14.50;99.90;;;;;;5033209;28;20032;-64
2021/12/26 07:04:24;;;;;;;12.73;3.50;;;14.50;99.90;;;;;;5033657;28;20371;-65
2021/12/26 07:06:49;;;;;;;11.90;3.83;;;14.50;99.90;;;;;;5032969;28;20032;-65
2021/12/26 07:09:15;;;;;;;10.93;4.00;;;14.50;99.90;;;;;;5033140;28;20025;-66
2021/12/26 07:11:41;;;;;;;11.55;3.90;;;14.50;99.90;;;;;;5033211;28;20025;-65
2021/12/26 07:14:08;;;;;;;13.93;4.20;;;14.60;99.90;;;;;;5033113;28;20051;-65
2021/12/26 07:16:34;;;;;;;13.75;4.40;;;14.60;99.90;;;;;;5033282;28;20029;-64
2021/12/26 07:19:00;;;;;;;10.40;3.53;;;14.60;99.90;;;;;;5032867;28;20096;-65
2021/12/26 07:21:26;;;;;;;12.00;3.85;;;14.60;99.90;;;;;;5032654;28;20479;-65
2021/12/26 07:23:52;;;;;;;11.75;3.50;;;14.70;99.90;;;;;;5032724;28;20029;-64
2021/12/26 07:26:17;;;;;;;10.55;3.30;;;14.70;99.90;;;;;;5032709;28;20055;-65
2021/12/26 07:28:43;;;;;;;15.70;3.80;;;14.70;99.90;;;;;;5032594;28;20017;-64
2021/12/26 07:31:10;;;;;;;12.60;3.80;;;14.70;99.90;;;;;;5032947;28;20026;-65
2021/12/26 07:33:35;;;;;;;12.40;3.72;;;14.70;99.90;;;;;;5032935;28;20100;-65
2021/12/26 07:36:02;;;;;;;12.55;3.72;;;14.70;99.90;;;;;;5032629;28;20112;-64
2021/12/26 07:38:28;;;;;;;16.20;5.70;;;14.70;99.90;;;;;;5014906;28;20032;-80
2021/12/26 07:40:53;;;;;;;11.88;4.30;;;14.80;99.90;;;;;;5033739;28;20030;-76
2021/12/26 07:43:19;;;;;;;13.68;4.53;;;14.80;99.90;;;;;;5033603;28;20049;-78
2021/12/26 07:45:45;;;;;;;13.70;4.07;;;14.80;99.90;;;;;;5032591;28;20030;-64
2021/12/26 07:48:11;;;;;;;12.80;4.60;;;14.80;99.90;;;;;;5032658;28;20025;-65
2021/12/26 07:50:36;;;;;;;11.77;4.47;;;14.80;99.90;;;;;;5015540;28;20053;-79
2021/12/26 07:53:07;;;;;;;14.93;4.43;;;14.90;99.90;;;;;;5033536;28;20053;-76
2021/12/26 07:55:33;;;;;;;15.82;5.38;;;14.90;99.90;;;;;;5032655;28;20049;-68
2021/12/26 07:58:00;;;;;;;19.73;4.78;;;15.00;99.90;;;;;;5035642;28;20022;-65
2021/12/26 08:00:25;;;;;;;13.00;5.10;;;15.00;99.90;;;;;;5036826;28;20065;-68
2021/12/26 08:02:52;;;;;;;18.35;7.75;;;15.10;99.90;;;;;;5036795;28;20467;-65
2021/12/26 08:05:18;;;;;;;16.75;6.32;;;15.10;99.90;;;;;;5036560;28;20025;-67
2021/12/26 08:07:45;;;;;;;14.02;5.00;;;15.20;99.90;;;;;;5035773;28;20167;-72
2021/12/26 08:10:11;;;;;;;14.70;4.60;;;15.20;99.90;;;;;;5018714;28;20033;-65
2021/12/26 08:12:37;;;;;;;14.25;4.93;;;15.30;99.90;;;;;;5035980;28;20022;-64
2021/12/26 08:15:04;;;;;;;17.35;4.50;;;15.30;99.90;;;;;;5036296;28;20041;-77
2021/12/26 08:17:30;;;;;;;16.05;4.63;;;15.30;99.90;;;;;;5018926;28;20459;-79
2021/12/26 08:19:57;;;;;;;14.52;5.10;;;15.40;99.90;;;;;;5036612;28;20152;-65
2021/12/26 08:22:23;;;;;;;18.10;5.07;;;15.40;99.90;;;;;;5017934;28;20079;-68
2021/12/26 08:24:49;;;;;;;17.02;5.15;;;15.50;99.90;;;;;;5035746;28;20030;-77
2021/12/26 08:27:15;;;;;;;15.05;4.35;;;15.50;99.90;;;;;;5038713;28;20109;-73
2021/12/26 08:29:41;;;;;;;18.73;5.10;;;15.50;99.90;;;;;;5037514;28;20435;-76
2021/12/26 08:32:12;;;;;;;16.30;5.38;;;15.60;99.90;;;;;;5042622;28;20048;-73
2021/12/26 08:34:38;;;;;;;18.40;5.15;;;15.70;99.90;;;;;;5029446;28;20052;-78
2021/12/26 08:37:05;;;;;;;20.55;5.45;;;15.70;99.90;;;;;;5029662;28;20112;-67
2021/12/26 08:39:36;;;;;;;17.83;5.25;;;15.70;99.90;;;;;;5044094;28;20033;-79
2021/12/26 08:42:04;;;;;;;18.10;5.43;;;15.80;99.90;;;;;;5035630;28;20109;-65
2021/12/26 08:44:29;;;;;;;24.25;4.93;;;15.80;99.90;;;;;;5035421;28;20550;-66
2021/12/26 08:46:56;;;;;;;16.20;5.28;;;15.80;99.90;;;;;;5037150;28;20061;-70
2021/12/26 08:49:22;;;;;;;20.98;5.35;;;15.80;99.90;;;;;;5036459;28;20089;-80
2021/12/26 08:51:49;;;;;;;17.10;5.50;;;15.90;99.90;;;;;;5036135;28;20048;-81
2021/12/26 08:54:16;;;;;;;20.00;4.88;;;15.90;99.90;;;;;;5036034;28;20052;-78
2021/12/26 08:56:42;;;;;;;18.30;4.95;;;16.00;99.90;;;;;;5017878;28;20030;-66
2021/12/26 08:59:07;;;;;;;17.38;4.35;;;16.00;99.90;;;;;;5035088;28;20048;-64
2021/12/26 09:01:36;;;;;;;19.50;5.00;;;16.00;99.90;;;;;;5034976;28;20033;-66
2021/12/26 09:04:03;;;;;;;16.65;4.88;;;16.10;99.90;;;;;;5034985;28;20021;-66
2021/12/26 09:06:29;;;;;;;24.85;5.30;;;16.10;99.90;;;;;;5034998;28;20474;-66
2021/12/26 09:08:55;;;;;;;16.40;4.72;;;16.10;99.90;;;;;;5033964;28;20037;-65
2021/12/26 09:11:21;;;;;;;23.67;4.88;;;16.10;99.90;;;;;;5034596;28;20509;-65
2021/12/26 09:13:47;;;;;;;16.13;4.65;;;16.10;99.90;;;;;;5034715;28;20029;-66
2021/12/26 09:16:17;;;;;;;20.23;4.78;;;16.10;99.90;;;;;;5035621;28;20061;-79
2021/12/26 09:18:43;;;;;;;22.65;7.10;;;16.10;99.90;;;;;;5047657;28;20022;-72
2021/12/26 09:21:09;;;;;;;26.13;5.28;;;16.10;99.90;;;;;;5025286;28;20033;-66
2021/12/26 09:23:35;;;;;;;21.38;5.13;;;16.10;99.90;;;;;;5017079;28;20036;-65
2021/12/26 09:26:00;;;;;;;21.55;5.88;;;16.20;99.90;;;;;;5034700;28;20394;-81
2021/12/26 09:28:28;;;;;;;19.10;5.68;;;16.30;99.90;;;;;;5035336;28;20021;-74
2021/12/26 09:30:54;;;;;;;19.67;5.90;;;16.30;99.90;;;;;;5035045;28;20033;-65
2021/12/26 09:33:20;;;;;;;22.60;5.90;;;16.40;99.90;;;;;;5034498;28;20052;-65
2021/12/26 09:35:47;;;;;;;19.42;5.00;;;16.40;99.90;;;;;;5034212;28;20037;-65
2021/12/26 09:38:13;;;;;;;18.40;4.90;;;16.50;99.90;;;;;;5035082;28;20029;-75
2021/12/26 09:40:39;;;;;;;17.30;4.25;;;16.50;99.90;;;;;;5034976;28;20030;-66
2021/12/26 09:43:05;;;;;;;21.25;5.72;;;16.60;99.90;;;;;;5034600;28;20049;-69
2021/12/26 09:45:31;;;;;;;19.58;5.20;;;16.60;99.90;;;;;;5034420;28;20532;-69
2021/12/26 09:47:57;;;;;;;20.90;5.00;;;16.60;99.90;;;;;;5034703;28;20037;-74
2021/12/26 09:50:22;;;;;;;24.80;5.47;;;16.70;99.90;;;;;;5034773;28;20042;-65
2021/12/26 09:52:50;;;;;;;18.90;5.50;;;16.60;99.90;;;;;;5034578;28;20033;-67
2021/12/26 09:55:16;;;;;;;26.30;5.82;;;16.60;99.90;;;;;;5016776;28;20041;-66
2021/12/26 09:57:42;;;;;;;20.20;4.65;;;16.60;99.90;;;;;;5034373;28;20022;-71
2021/12/26 10:00:21;;;;;;;20.83;6.25;;;16.60;99.90;;;;;;5034359;28;20017;-74
2021/12/26 10:03:06;;;;;;;18.58;6.25;;;16.60;99.90;;;;;;5034531;28;20491;-78
2021/12/26 10:05:32;;;;;;;20.38;5.53;;;16.60;99.90;;;;;;5016948;28;20030;-76
2021/12/26 10:08:08;;;;;;;23.13;5.85;;;16.60;99.90;;;;;;5034780;28;20026;-78
2021/12/26 10:10:34;;;;;;;20.20;6.13;;;16.60;99.90;;;;;;5034782;28;20053;-80
2021/12/26 10:13:00;;;;;;;21.92;5.45;;;16.60;99.90;;;;;;5034579;28;20030;-77
2021/12/26 10:15:48;;;;;;;23.70;5.57;;;16.60;99.90;;;;;;5034132;28;20044;-79
2021/12/26 10:18:30;;;;;;;16.75;5.72;;;16.60;99.90;;;;;;5016665;28;20103;-78
2021/12/26 10:20:56;;;;;;;21.60;5.97;;;16.60;99.90;;;;;;5032841;28;20360;-72
2021/12/26 10:23:29;;;;;;;20.00;5.20;;;16.50;99.90;;;;;;5033521;28;20040;-70
2021/12/26 10:25:55;;;;;;;17.95;5.68;;;16.50;99.90;;;;;;5015880;28;20033;-72
2021/12/26 10:28:21;;;;;;;21.50;5.75;;;16.50;99.90;;;;;;5033853;28;20379;-72
2021/12/26 10:30:46;;;;;;;21.20;5.65;;;16.50;99.90;;;;;;5033870;28;20025;-68
2021/12/26 10:33:12;;;;;;;21.05;6.35;;;16.50;99.90;;;;;;5033771;28;20515;-67
2021/12/26 10:35:38;;;;;;;23.88;6.78;;;16.50;99.90;;;;;;5033589;28;20037;-67
2021/12/26 10:38:15;;;;;;;22.08;6.05;;;16.50;99.90;;;;;;5033427;28;20477;-68
2021/12/26 10:40:41;;;;;;;23.33;6.28;;;16.50;99.90;;;;;;5033326;28;20498;-66
2021/12/26 10:43:09;;;;;;;18.50;6.15;;;16.50;99.90;;;;;;5033172;28;20029;-66
2021/12/26 10:45:36;;;;;;;21.33;6.38;;;16.60;99.90;;;;;;5015905;28;20022;-64
2021/12/26 10:48:07;;;;;;;17.55;5.80;;;16.60;99.90;;;;;;5033367;28;20057;-69
2021/12/26 10:50:39;;;;;;;15.75;5.18;;;16.70;99.90;;;;;;5033217;28;20041;-67
2021/12/26 10:53:14;;;;;;;19.20;5.63;;;16.70;99.90;;;;;;5033302;28;20044;-70
2021/12/26 10:55:51;;;;;;;15.20;4.97;;;16.80;99.90;;;;;;5031958;28;20406;-66
2021/12/26 10:58:21;;;;;;;15.90;4.80;;;16.80;99.90;;;;;;5016518;28;20024;-73
2021/12/26 11:00:53;;;;;;;18.77;5.28;;;16.90;99.90;;;;;;5033019;28;20030;-65
2021/12/26 11:03:22;;;;;;;18.30;5.82;;;17.00;99.90;;;;;;5015320;28;20100;-68
2021/12/26 11:05:52;;;;;;;18.85;5.15;;;17.00;99.90;;;;;;5033022;28;20028;-64
2021/12/26 11:08:29;;;;;;;15.48;4.30;;;17.00;99.90;;;;;;5015408;28;20049;-74
2021/12/26 11:10:56;;;;;;;10.10;3.83;;;17.10;99.90;;;;;;5033063;28;20026;-69
2021/12/26 11:13:28;;;;;;;14.45;3.90;;;17.10;99.90;;;;;;5032977;28;20479;-66
2021/12/26 11:16:07;;;;;;;15.35;3.88;;;17.10;99.90;;;;;;5032495;28;20514;-67
2021/12/26 11:18:36;;;;;;;15.10;4.35;;;17.10;99.90;;;;;;5032796;28;20069;-69
2021/12/26 11:21:07;;;;;;;14.65;4.50;;;17.20;99.90;;;;;;5032592;28;20018;-66
2021/12/26 11:23:39;;;;;;;13.43;3.80;;;17.20;99.90;;;;;;5032740;28;20017;-68
2021/12/26 11:26:07;;;;;;;12.57;3.80;;;17.20;99.90;;;;;;5033025;28;20037;-68
2021/12/26 11:28:36;;;;;;;20.05;4.88;;;17.20;99.90;;;;;;5033010;28;20096;-69
2021/12/26 11:31:13;;;;;;;14.00;3.95;;;17.20;99.90;;;;;;5032851;28;20025;-65
2021/12/26 11:33:40;;;;;;;14.95;4.50;;;17.20;99.90;;;;;;5036824;28;20037;-64
2021/12/26 11:36:09;;;;;;;12.50;3.88;;;17.20;99.90;;;;;;5036556;28;20146;-65
2021/12/26 11:38:36;;;;;;;13.55;3.55;;;17.20;99.90;;;;;;5036435;28;20038;-65
2021/12/26 11:41:20;;;;;;;11.10;3.53;;;17.20;99.90;;;;;;5037275;28;20367;-74
2021/12/26 11:44:10;;;;;;;16.23;3.63;;;17.20;99.90;;;;;;5037045;28;20029;-70
2021/12/26 11:46:54;;;;;;;10.73;2.80;;;17.00;99.90;;;;;;5036983;28;20030;-73
2021/12/26 11:49:37;;;;;;;12.48;4.05;;;17.00;99.90;;;;;;5037023;28;20049;-65
2021/12/26 11:52:35;;;;;;;11.07;3.58;;;16.90;99.90;;;;;;5036446;28;20463;-65
2021/12/26 11:55:20;;;;;;;11.50;3.50;;;17.00;99.90;;;;;;5036095;28;20041;-65
2021/12/26 11:58:21;;;;;;;11.77;3.65;;;16.90;99.90;;;;;;5036444;28;20022;-66
2021/12/26 12:00:51;;;;;;;19.95;4.30;;;16.90;99.90;;;;;;5036155;28;20424;-65
2021/12/26 12:03:23;;;;;;;9.43;3.65;;;16.80;99.90;;;;;;5036160;28;20072;-66
2021/12/26 12:05:49;;;;;;;11.80;4.32;;;16.70;99.90;;;;;;5036124;28;20028;-66
2021/12/26 12:08:28;;;;;;;10.70;3.70;;;16.70;99.90;;;;;;5018272;28;20123;-66
2021/12/26 12:10:54;;;;;;;14.50;3.80;;;16.70;99.90;;;;;;5036067;28;20030;-66
2021/12/26 12:13:23;;;;;;;11.27;3.65;;;16.70;99.90;;;;;;5035969;28;20414;-66
2021/12/26 12:15:53;;;;;;;14.10;3.50;;;16.60;99.90;;;;;;5035770;28;20045;-65
2021/12/26 12:18:21;;;;;;;11.57;3.63;;;16.60;99.90;;;;;;5017684;28;20022;-65
2021/12/26 12:21:05;;;;;;;11.50;4.55;;;16.60;99.90;;;;;;5035496;28;20041;-65
2021/12/26 12:23:32;;;;;;;12.00;3.67;;;16.60;99.90;;;;;;5018194;28;20033;-66
2021/12/26 12:25:58;;;;;;;11.52;3.75;;;16.60;99.90;;;;;;5018013;28;20036;-65
2021/12/26 12:28:33;;;;;;;13.32;4.45;;;16.60;99.90;;;;;;5035697;28;20025;-65
2021/12/26 12:31:08;;;;;;;12.27;5.70;;;16.50;99.90;;;;;;5035575;28;20057;-66
2021/12/26 12:33:36;;;;;;;12.55;5.88;;;16.50;99.90;;;;;;5035330;28;20104;-65
2021/12/26 12:36:09;;;;;;;9.65;3.58;;;16.50;99.90;;;;;;5035557;28;20363;-66
2021/12/26 12:38:40;;;;;;;;;;;16.50;99.90;;;;;;5035882;28;20470;-65
2021/12/26 12:41:27;;;;;;;11.20;3.42;;;16.40;99.90;;;;;;5035622;28;19941;-65
2021/12/26 12:43:52;;;;;;;10.48;3.25;;;16.40;99.90;;;;;;5034337;28;20048;-65
2021/12/26 12:46:18;;;;;;;12.95;3.20;;;16.40;99.90;;;;;;5035402;28;20435;-65